Time;durP1;ratioP1;P1;durP2;ratioP2;P2;SDS_P1;SDS_P2;PMS_P1;PMS_P2;Temp;Humidity;BMP_temperature;BMP_pressure;BME280_temperature;BME280_humidity;BME280_pressure;Samples;Min_cycle;Max_cycle;Signal;HPM_P1;HPM_P2
2022/09/21 00:00:03;;;;;;;5.00;4.50;;;12.50;1.00;;;;;;4989197;28;20213;-56
2022/09/21 00:02:29;;;;;;;5.53;4.03;;;12.50;1.00;;;;;;4985040;28;20988;-61
2022/09/21 00:04:54;;;;;;;5.03;4.53;;;12.40;1.00;;;;;;4989712;28;20441;-61
2022/09/21 00:07:20;;;;;;;7.00;4.70;;;12.40;1.00;;;;;;4988717;28;20186;-60
2022/09/21 00:09:45;;;;;;;4.37;3.97;;;12.50;1.00;;;;;;4990934;28;20186;-59
2022/09/21 00:12:11;;;;;;;4.37;4.00;;;12.40;1.00;;;;;;4988249;28;20221;-59
2022/09/21 00:14:38;;;;;;;5.73;4.20;;;12.30;1.00;;;;;;4990408;28;20534;-56
2022/09/21 00:17:03;;;;;;;6.27;4.70;;;12.30;1.00;;;;;;4991625;28;20190;-57
2022/09/21 00:19:29;;;;;;;4.57;4.17;;;12.30;1.00;;;;;;4992097;28;20486;-57
2022/09/21 00:21:55;;;;;;;5.87;4.00;;;12.40;1.00;;;;;;4984011;28;20178;-57
2022/09/21 00:24:21;;;;;;;4.20;3.70;;;12.40;1.00;;;;;;4990330;28;20197;-55
2022/09/21 00:26:46;;;;;;;4.60;4.20;;;12.50;1.00;;;;;;4988568;28;20420;-55
2022/09/21 00:29:12;;;;;;;4.27;3.80;;;12.60;1.00;;;;;;4988410;28;20248;-57
2022/09/21 00:31:38;;;;;;;5.10;3.90;;;12.50;1.00;;;;;;4990152;28;20186;-57
2022/09/21 00:34:06;;;;;;;5.17;4.67;;;12.50;1.00;;;;;;4982378;28;20984;-58
2022/09/21 00:36:33;;;;;;;8.53;6.47;;;12.60;1.00;;;;;;4978707;28;20205;-58
2022/09/21 00:39:00;;;;;;;6.63;5.73;;;12.60;1.00;;;;;;4981485;28;20827;-57
2022/09/21 00:41:28;;;;;;;4.90;4.40;;;12.60;1.00;;;;;;4991905;28;20477;-56
2022/09/21 00:44:22;;;;;;;7.20;4.90;;;12.60;1.00;;;;;;4987901;28;21076;-55
2022/09/21 00:46:49;;;;;;;7.70;5.80;;;12.70;1.00;;;;;;4993109;28;20985;-57
2022/09/21 00:49:16;;;;;;;6.33;5.73;;;12.60;1.00;;;;;;4989629;28;21032;-56
2022/09/21 00:51:42;;;;;;;5.53;4.50;;;12.60;1.00;;;;;;4988662;28;20474;-57
2022/09/21 00:54:13;;;;;;;4.50;4.10;;;12.60;1.00;;;;;;5004028;28;20457;-56
2022/09/21 00:56:39;;;;;;;4.13;3.80;;;12.60;1.00;;;;;;4990328;28;20459;-56
2022/09/21 00:59:06;;;;;;;4.37;3.97;;;12.60;1.00;;;;;;4990469;28;20812;-56
2022/09/21 01:01:32;;;;;;;5.80;4.50;;;12.50;1.00;;;;;;4990153;28;20494;-55
2022/09/21 01:03:59;;;;;;;5.60;4.10;;;12.50;1.00;;;;;;4993389;28;20445;-56
2022/09/21 01:06:25;;;;;;;4.77;4.10;;;12.50;1.00;;;;;;4989979;28;20432;-57
2022/09/21 01:08:54;;;;;;;4.50;4.10;;;12.50;1.00;;;;;;4991663;28;20461;-57
2022/09/21 01:11:48;;;;;;;4.43;4.03;;;12.40;1.00;;;;;;4990819;28;20427;-55
2022/09/21 01:14:56;;;;;;;3.93;3.63;;;12.40;1.00;;;;;;4992424;28;20420;-55
2022/09/21 01:17:39;;;;;;;5.07;3.83;;;12.30;1.00;;;;;;4988004;28;20452;-56
2022/09/21 01:20:38;;;;;;;4.40;3.97;;;12.30;1.00;;;;;;4991459;28;20456;-55
2022/09/21 01:23:39;;;;;;;4.13;3.67;;;12.30;1.00;;;;;;4990224;28;20419;-59
2022/09/21 01:26:42;;;;;;;4.90;4.50;;;12.40;1.00;;;;;;4976643;28;20449;-55
2022/09/21 01:29:28;;;;;;;4.87;4.40;;;12.30;1.00;;;;;;4992293;28;20448;-56
2022/09/21 01:32:13;;;;;;;5.13;4.40;;;12.20;1.00;;;;;;4986495;28;20447;-56
2022/09/21 01:34:48;;;;;;;4.90;4.50;;;12.10;1.00;;;;;;4991977;28;20457;-55
2022/09/21 01:37:22;;;;;;;5.07;4.60;;;12.00;1.00;;;;;;4986700;28;20904;-55
2022/09/21 01:39:54;;;;;;;5.40;4.13;;;11.90;1.00;;;;;;4991641;28;20977;-57
2022/09/21 01:42:22;;;;;;;5.10;4.60;;;11.90;1.00;;;;;;4991887;28;20437;-56
2022/09/21 01:44:49;;;;;;;5.73;4.83;;;11.70;1.00;;;;;;4992839;28;21017;-56
2022/09/21 01:47:17;;;;;;;5.20;4.70;;;11.70;1.00;;;;;;4988734;28;20545;-55
2022/09/21 01:49:52;;;;;;;5.50;5.00;;;11.80;1.00;;;;;;4992593;28;20454;-56
2022/09/21 01:52:55;;;;;;;8.73;5.43;;;11.80;1.00;;;;;;4981303;28;20761;-56
2022/09/21 01:55:34;;;;;;;5.50;5.00;;;11.70;1.00;;;;;;4988666;28;20514;-57
2022/09/21 01:58:23;;;;;;;4.43;4.03;;;11.80;1.00;;;;;;4989135;28;20443;-56
2022/09/21 02:00:54;;;;;;;5.77;4.60;;;11.80;1.00;;;;;;4988997;28;20532;-55
2022/09/21 02:03:35;;;;;;;5.70;4.70;;;11.80;1.00;;;;;;4984185;28;20513;-57
2022/09/21 02:06:03;;;;;;;4.80;4.30;;;11.90;1.00;;;;;;4992386;28;20592;-55
2022/09/21 02:08:31;;;;;;;5.13;4.57;;;11.90;1.00;;;;;;4988346;28;20432;-55
2022/09/21 02:11:00;;;;;;;4.93;4.20;;;11.80;1.00;;;;;;4992123;28;20428;-56
2022/09/21 02:13:30;;;;;;;6.10;4.97;;;11.80;1.00;;;;;;4989531;28;20544;-57
2022/09/21 02:16:11;;;;;;;8.20;4.20;;;11.70;1.00;;;;;;4994888;28;20464;-55
2022/09/21 02:19:01;;;;;;;6.57;4.30;;;11.70;1.00;;;;;;4990010;28;20497;-57
2022/09/21 02:21:32;;;;;;;9.63;5.20;;;11.60;1.00;;;;;;4993845;28;20461;-55
2022/09/21 02:24:04;;;;;;;6.20;5.00;;;11.50;1.00;;;;;;4992033;28;20441;-57
2022/09/21 02:27:12;;;;;;;7.23;5.07;;;11.50;1.00;;;;;;4993283;28;20460;-56
2022/09/21 02:29:49;;;;;;;5.53;4.10;;;11.50;1.00;;;;;;4893542;29;20436;-56
2022/09/21 02:32:34;;;;;;;4.90;3.73;;;11.50;1.00;;;;;;4885457;29;20598;-55
2022/09/21 02:35:25;;;;;;;3.50;3.20;;;11.50;1.00;;;;;;4959839;28;20435;-57
2022/09/21 02:37:57;;;;;;;6.63;3.40;;;11.60;1.00;;;;;;4988290;28;20461;-56
2022/09/21 02:40:32;;;;;;;5.53;3.33;;;11.50;1.00;;;;;;4990550;28;20420;-56
2022/09/21 02:43:08;;;;;;;6.27;2.70;;;11.60;1.00;;;;;;4991741;28;20488;-56
2022/09/21 02:45:41;;;;;;;5.33;3.37;;;11.70;1.00;;;;;;4990708;28;20519;-57
2022/09/21 02:48:12;;;;;;;4.83;3.00;;;11.70;1.00;;;;;;4991257;28;20874;-57
2022/09/21 02:50:53;;;;;;;4.07;2.80;;;11.80;1.00;;;;;;4987873;28;20418;-57
2022/09/21 02:53:24;;;;;;;3.47;2.47;;;11.80;1.00;;;;;;4986213;28;20450;-57
2022/09/21 02:55:51;;;;;;;4.70;2.70;;;11.90;1.00;;;;;;4990692;28;20450;-56
2022/09/21 02:58:20;;;;;;;2.60;2.40;;;11.80;1.00;;;;;;4990354;28;20475;-57
2022/09/21 03:00:46;;;;;;;3.83;2.90;;;11.90;1.00;;;;;;4986833;28;20427;-56
2022/09/21 03:03:20;;;;;;;4.20;3.30;;;12.00;1.00;;;;;;4988811;28;20774;-56
2022/09/21 03:05:49;;;;;;;5.27;3.03;;;12.50;1.00;;;;;;4990004;28;20305;-58
2022/09/21 03:08:18;;;;;;;5.03;3.73;;;12.20;1.00;;;;;;4990064;28;20442;-57
2022/09/21 03:10:45;;;;;;;4.70;3.33;;;12.20;1.00;;;;;;4989671;28;20459;-64
2022/09/21 03:13:11;;;;;;;5.07;3.97;;;12.30;1.00;;;;;;4989507;28;20547;-64
2022/09/21 03:15:38;;;;;;;6.90;3.57;;;12.30;1.00;;;;;;4991729;28;20452;-65
2022/09/21 03:18:08;;;;;;;4.87;4.30;;;12.20;1.00;;;;;;4991420;28;20443;-65
2022/09/21 03:20:34;;;;;;;6.13;4.00;;;12.20;1.00;;;;;;4989179;28;20428;-64
2022/09/21 03:23:00;;;;;;;5.10;3.37;;;12.20;1.00;;;;;;4990687;28;21074;-65
2022/09/21 03:25:27;;;;;;;4.87;3.90;;;12.10;1.00;;;;;;4989917;28;20476;-64
2022/09/21 03:27:54;;;;;;;4.10;3.70;;;12.20;1.00;;;;;;4987210;28;20453;-64
2022/09/21 03:30:24;;;;;;;5.30;4.33;;;12.20;1.00;;;;;;4979730;28;20441;-65
2022/09/21 03:32:54;;;;;;;3.90;3.50;;;12.20;1.00;;;;;;4985425;28;20912;-64
2022/09/21 03:35:20;;;;;;;4.77;4.27;;;12.10;1.00;;;;;;4980706;28;20958;-64
2022/09/21 03:37:48;;;;;;;4.90;3.77;;;14.10;1.00;;;;;;4984906;28;20438;-64
2022/09/21 03:40:15;;;;;;;5.13;4.27;;;12.10;1.00;;;;;;4991878;28;20457;-65
2022/09/21 03:42:41;;;;;;;4.87;3.63;;;12.20;1.00;;;;;;4988859;28;20503;-64
2022/09/21 03:45:08;;;;;;;5.00;4.33;;;12.20;1.00;;;;;;4990387;28;20470;-64
2022/09/21 03:47:34;;;;;;;6.33;4.53;;;12.20;1.00;;;;;;4974236;28;20478;-65
2022/09/21 03:50:00;;;;;;;7.23;4.60;;;12.20;1.00;;;;;;4987818;28;20830;-65
2022/09/21 03:52:26;;;;;;;7.37;4.53;;;12.30;1.00;;;;;;4987896;28;20461;-64
2022/09/21 03:54:51;;;;;;;6.23;4.73;;;12.30;1.00;;;;;;4986055;28;20222;-65
2022/09/21 03:57:17;;;;;;;6.90;4.43;;;12.30;1.00;;;;;;4989437;28;20197;-60
2022/09/21 03:59:42;;;;;;;8.50;4.90;;;12.40;1.00;;;;;;4989038;28;20213;-61
2022/09/21 04:02:08;;;;;;;7.57;5.40;;;12.30;1.00;;;;;;4989470;28;20623;-60
2022/09/21 04:04:34;;;;;;;6.87;5.50;;;12.40;1.00;;;;;;4988843;28;20204;-61
2022/09/21 04:06:59;;;;;;;7.90;5.13;;;12.30;1.00;;;;;;4989541;28;20221;-60
2022/09/21 04:09:25;;;;;;;5.83;4.87;;;12.20;1.00;;;;;;4989214;28;20662;-61
2022/09/21 04:11:52;;;;;;;8.40;5.40;;;12.10;1.00;;;;;;5000401;28;20186;-62
2022/09/21 04:14:19;;;;;;;8.30;4.60;;;12.20;1.00;;;;;;4989598;28;20283;-59
2022/09/21 04:16:45;;;;;;;7.20;5.10;;;12.20;1.00;;;;;;4989738;28;20452;-55
2022/09/21 04:19:11;;;;;;;5.37;4.83;;;12.10;1.00;;;;;;4987804;28;20568;-55
2022/09/21 04:21:37;;;;;;;8.73;5.33;;;12.10;1.00;;;;;;4992275;28;20524;-53
2022/09/21 04:24:03;;;;;;;7.80;5.83;;;12.10;1.00;;;;;;4991785;28;20468;-54
2022/09/21 04:26:32;;;;;;;6.70;5.73;;;12.00;1.00;;;;;;4991140;28;20198;-56
2022/09/21 04:28:59;;;;;;;7.60;6.40;;;11.90;1.00;;;;;;4993447;28;20597;-54
2022/09/21 04:31:27;;;;;;;7.47;5.90;;;11.80;1.00;;;;;;4992114;28;20445;-56
2022/09/21 04:33:55;;;;;;;8.20;6.20;;;11.80;1.00;;;;;;4993227;28;20453;-55
2022/09/21 04:36:22;;;;;;;9.10;6.60;;;11.80;1.00;;;;;;4993388;28;20453;-57
2022/09/21 04:38:48;;;;;;;7.90;5.70;;;11.70;1.00;;;;;;4993738;28;20455;-54
2022/09/21 04:41:14;;;;;;;8.10;5.83;;;11.70;1.00;;;;;;4991048;28;20531;-54
2022/09/21 04:43:45;;;;;;;7.50;5.77;;;11.70;1.00;;;;;;4992175;28;20492;-55
2022/09/21 04:46:14;;;;;;;7.93;5.93;;;11.80;1.00;;;;;;4992419;28;20960;-56
2022/09/21 04:48:40;;;;;;;8.90;6.60;;;11.70;1.00;;;;;;4992849;28;20984;-56
2022/09/21 04:51:06;;;;;;;8.93;6.00;;;11.70;1.00;;;;;;4992672;28;20526;-55
2022/09/21 04:53:33;;;;;;;6.83;6.13;;;11.50;1.00;;;;;;4989583;28;21065;-54
2022/09/21 04:55:59;;;;;;;9.13;6.10;;;11.50;1.00;;;;;;4986789;28;20942;-56
2022/09/21 04:58:25;;;;;;;10.33;6.00;;;11.50;1.00;;;;;;4991907;28;21040;-57
2022/09/21 05:00:53;;;;;;;9.23;6.87;;;11.50;1.00;;;;;;4992462;28;20422;-54
2022/09/21 05:03:19;;;;;;;6.83;6.13;;;11.50;1.00;;;;;;4971819;28;20197;-56
2022/09/21 05:05:49;;;;;;;8.93;7.07;;;12.90;1.00;;;;;;4993827;28;20935;-56
2022/09/21 05:08:16;;;;;;;10.80;6.87;;;11.60;1.00;;;;;;4991192;28;20202;-52
2022/09/21 05:10:43;;;;;;;7.80;6.80;;;11.70;1.00;;;;;;4995358;28;20451;-55
2022/09/21 05:13:09;;;;;;;10.53;7.07;;;;;;;;;;4990394;28;20540;-55
2022/09/21 05:15:38;;;;;;;9.30;6.80;;;11.80;1.00;;;;;;4993039;28;20933;-55
2022/09/21 05:18:03;;;;;;;8.57;6.90;;;11.70;1.00;;;;;;4989336;28;20766;-56
2022/09/21 05:20:29;;;;;;;8.70;6.73;;;11.80;1.00;;;;;;4990915;28;20755;-55
2022/09/21 05:22:58;;;;;;;8.83;6.33;;;11.90;1.00;;;;;;4992483;28;20278;-54
2022/09/21 05:25:23;;;;;;;8.50;7.30;;;11.90;1.00;;;;;;4987190;28;20648;-53
2022/09/21 05:27:49;;;;;;;10.00;6.73;;;11.90;1.00;;;;;;4991009;28;20472;-54
2022/09/21 05:30:14;;;;;;;11.30;6.50;;;11.90;1.00;;;;;;4990710;28;20182;-55
2022/09/21 05:33:02;;;;;;;8.50;6.07;;;12.00;1.00;;;;;;4989630;28;20186;-55
2022/09/21 05:35:37;;;;;;;8.13;6.73;;;11.90;1.00;;;;;;4986934;28;20438;-57
2022/09/21 05:38:32;;;;;;;8.10;6.80;;;11.90;1.00;;;;;;4993055;28;20440;-55
2022/09/21 05:40:58;;;;;;;9.17;6.80;;;11.90;1.00;;;;;;4973132;28;20449;-57
2022/09/21 05:43:23;;;;;;;9.70;8.17;;;12.00;1.00;;;;;;4988005;28;20472;-56
2022/09/21 05:46:00;;;;;;;9.33;6.20;;;12.10;1.00;;;;;;4989472;28;20458;-54
2022/09/21 05:48:39;;;;;;;9.23;7.83;;;12.00;1.00;;;;;;4989424;28;20189;-53
2022/09/21 05:51:42;;;;;;;8.47;7.50;;;12.10;1.00;;;;;;4994780;28;20747;-55
2022/09/21 05:54:26;;;;;;;11.97;7.17;;;12.20;1.00;;;;;;4946652;28;20800;-53
2022/09/21 05:57:14;;;;;;;10.00;6.93;;;12.20;1.00;;;;;;4995436;28;20504;-53
2022/09/21 06:00:04;;;;;;;8.20;6.60;;;12.30;1.00;;;;;;4991529;28;20498;-53
2022/09/21 06:02:41;;;;;;;8.47;7.33;;;12.20;1.00;;;;;;4969407;28;20424;-55
2022/09/21 06:05:13;;;;;;;9.30;7.00;;;12.40;1.00;;;;;;4992046;28;20449;-53
2022/09/21 06:07:39;;;;;;;8.97;7.30;;;12.40;1.00;;;;;;4987761;28;20532;-53
2022/09/21 06:10:05;;;;;;;8.47;7.13;;;12.50;1.00;;;;;;4992904;28;20456;-56
2022/09/21 06:12:31;;;;;;;9.33;6.80;;;12.40;1.00;;;;;;4987894;28;20432;-56
2022/09/21 06:14:57;;;;;;;8.60;7.80;;;12.80;1.00;;;;;;4991135;28;20422;-55
2022/09/21 06:17:26;;;;;;;8.30;7.20;;;12.40;1.00;;;;;;4991655;28;20281;-56
2022/09/21 06:19:54;;;;;;;9.10;7.17;;;12.50;1.00;;;;;;4992082;28;20469;-55
2022/09/21 06:22:20;;;;;;;10.37;7.20;;;12.60;1.00;;;;;;4985679;28;20474;-54
2022/09/21 06:24:45;;;;;;;9.77;8.10;;;12.60;1.00;;;;;;4989035;28;20416;-56
2022/09/21 06:27:11;;;;;;;11.13;7.70;;;12.70;1.00;;;;;;4996776;28;20321;-55
2022/09/21 06:29:37;;;;;;;8.70;7.50;;;12.80;1.00;;;;;;4992021;28;20715;-54
2022/09/21 06:32:03;;;;;;;9.47;8.50;;;12.80;1.00;;;;;;4988611;28;20743;-55
2022/09/21 06:34:28;;;;;;;9.67;7.30;;;12.90;1.00;;;;;;4991720;28;20678;-56
2022/09/21 06:36:54;;;;;;;10.63;7.40;;;12.90;1.00;;;;;;4983505;28;20446;-55
2022/09/21 06:39:19;;;;;;;10.70;7.70;;;12.80;1.00;;;;;;4991874;28;20208;-56
2022/09/21 06:41:45;;;;;;;9.13;7.57;;;12.70;1.00;;;;;;4991624;28;20182;-51
2022/09/21 06:44:11;;;;;;;10.23;8.27;;;12.70;1.00;;;;;;4987330;28;20219;-55
2022/09/21 06:46:36;;;;;;;10.00;7.90;;;12.80;1.00;;;;;;4988386;28;20182;-56
2022/09/21 06:49:02;;;;;;;9.20;8.23;;;12.80;1.00;;;;;;4970887;28;20186;-56
2022/09/21 06:51:27;;;;;;;8.13;7.13;;;12.90;1.00;;;;;;4990125;28;20640;-55
2022/09/21 06:53:55;;;;;;;9.83;8.10;;;12.90;1.00;;;;;;4995149;28;20233;-55
2022/09/21 06:56:21;;;;;;;7.87;7.10;;;12.80;1.00;;;;;;4988417;28;20563;-58
2022/09/21 06:58:47;;;;;;;9.07;7.80;;;12.80;1.00;;;;;;4983982;28;20431;-56
2022/09/21 07:01:13;;;;;;;9.50;6.93;;;12.90;1.00;;;;;;4989561;28;20190;-54
2022/09/21 07:03:41;;;;;;;9.53;7.10;;;12.90;1.00;;;;;;4989150;28;20652;-55
2022/09/21 07:06:07;;;;;;;8.90;7.23;;;13.00;1.00;;;;;;4991955;28;20462;-55
2022/09/21 07:08:34;;;;;;;9.37;8.20;;;12.90;1.00;;;;;;4990959;28;20443;-57
2022/09/21 07:11:01;;;;;;;7.37;6.13;;;13.00;1.00;;;;;;4995069;28;20445;-55
2022/09/21 07:13:27;;;;;;;8.17;7.13;;;13.10;1.00;;;;;;4998724;28;20440;-55
2022/09/21 07:15:53;;;;;;;7.90;6.70;;;13.00;1.00;;;;;;4992505;28;20453;-56
2022/09/21 07:18:18;;;;;;;8.67;7.77;;;13.10;1.00;;;;;;5000547;28;20474;-56
2022/09/21 07:20:44;;;;;;;11.80;7.80;;;13.10;1.00;;;;;;4987232;28;20303;-55
2022/09/21 07:23:13;;;;;;;8.00;6.90;;;13.30;1.00;;;;;;4990505;28;20248;-57
2022/09/21 07:25:38;;;;;;;8.20;7.17;;;13.20;1.00;;;;;;4991772;28;20274;-56
2022/09/21 07:28:04;;;;;;;10.63;7.97;;;13.10;1.00;;;;;;4991268;28;20878;-55
2022/09/21 07:30:29;;;;;;;9.03;7.90;;;13.20;1.00;;;;;;4996306;28;20182;-55
2022/09/21 07:32:55;;;;;;;7.83;7.10;;;13.20;1.00;;;;;;4991211;28;20261;-55
2022/09/21 07:35:20;;;;;;;7.10;6.37;;;13.30;1.00;;;;;;4991263;28;20182;-54
2022/09/21 07:37:46;;;;;;;9.10;6.20;;;13.50;1.00;;;;;;4989256;28;20451;-55
2022/09/21 07:40:11;;;;;;;10.70;7.17;;;13.70;1.00;;;;;;5006625;28;20705;-56
2022/09/21 07:42:38;;;;;;;7.20;6.10;;;13.80;1.00;;;;;;4989642;28;20222;-55
2022/09/21 07:45:04;;;;;;;7.40;6.70;;;13.90;1.00;;;;;;4986667;28;20190;-56
2022/09/21 07:47:30;;;;;;;8.90;7.53;;;14.00;1.00;;;;;;4987977;28;20450;-54
2022/09/21 07:49:55;;;;;;;6.50;5.90;;;14.10;1.00;;;;;;4988463;28;20431;-56
2022/09/21 07:52:21;;;;;;;6.80;5.40;;;14.10;1.00;;;;;;4986083;28;20780;-55
2022/09/21 07:54:47;;;;;;;9.43;5.87;;;14.20;1.00;;;;;;4986501;28;20190;-56
2022/09/21 07:59:57;;;;;;;10.20;6.27;;;14.50;1.00;;;;;;4991535;28;20329;-54
2022/09/21 08:02:22;;;;;;;8.47;6.10;;;14.60;1.00;;;;;;4990180;28;20432;-55
2022/09/21 08:04:48;;;;;;;9.83;5.87;;;14.60;1.00;;;;;;4991246;28;20573;-57
2022/09/21 08:07:14;;;;;;;7.37;6.40;;;14.40;1.00;;;;;;4990911;28;20433;-55
2022/09/21 08:09:40;;;;;;;9.10;5.97;;;14.50;1.00;;;;;;4991036;28;20182;-55
2022/09/21 08:12:06;;;;;;;7.40;5.77;;;14.50;1.00;;;;;;4990637;28;20280;-54
2022/09/21 08:14:32;;;;;;;9.90;5.90;;;14.30;1.00;;;;;;4995662;28;20529;-54
2022/09/21 08:16:57;;;;;;;7.30;6.37;;;14.20;1.00;;;;;;5010504;28;20447;-55
2022/09/21 08:19:26;;;;;;;7.73;6.93;;;14.10;1.00;;;;;;5006705;28;20466;-56
2022/09/21 08:21:53;;;;;;;8.73;6.63;;;14.10;1.00;;;;;;4990677;28;20687;-56
2022/09/21 08:24:19;;;;;;;9.27;7.50;;;14.20;1.00;;;;;;4990717;28;20441;-54
2022/09/21 08:26:45;;;;;;;9.70;7.30;;;14.40;1.00;;;;;;4990437;28;20562;-53
2022/09/21 08:29:13;;;;;;;6.57;5.80;;;14.60;1.00;;;;;;5006711;28;20451;-53
2022/09/21 08:31:39;;;;;;;6.77;5.97;;;14.60;1.00;;;;;;5010207;28;20224;-56
2022/09/21 08:34:04;;;;;;;6.33;5.73;;;14.50;1.00;;;;;;5000597;28;20448;-55
2022/09/21 08:36:31;;;;;;;7.37;6.63;;;14.60;1.00;;;;;;4990404;28;20445;-54
2022/09/21 08:38:56;;;;;;;6.10;5.50;;;14.70;1.00;;;;;;4990659;28;20210;-57
2022/09/21 08:41:43;;;;;;;7.53;4.67;;;14.90;1.00;;;;;;4990570;28;20487;-55
2022/09/21 08:44:21;;;;;;;6.10;5.20;;;15.00;1.00;;;;;;4990522;28;20273;-56
2022/09/21 08:47:01;;;;;;;5.07;4.60;;;15.20;1.00;;;;;;4990694;28;20917;-56
2022/09/21 08:49:28;;;;;;;5.63;4.70;;;15.10;1.00;;;;;;4990402;28;20473;-54
2022/09/21 08:51:59;;;;;;;6.13;4.87;;;15.00;1.00;;;;;;5001262;28;20527;-54
2022/09/21 08:54:33;;;;;;;4.60;4.30;;;15.30;1.00;;;;;;5010083;28;20444;-54
2022/09/21 08:57:00;;;;;;;5.70;4.00;;;15.30;1.00;;;;;;5009907;28;20534;-55
2022/09/21 08:59:25;;;;;;;3.97;3.57;;;15.50;1.00;;;;;;5009978;28;20497;-56
2022/09/21 09:02:02;;;;;;;6.40;4.70;;;15.70;1.00;;;;;;5009682;28;20939;-55
2022/09/21 09:04:48;;;;;;;4.70;4.27;;;15.70;1.00;;;;;;4997262;28;20193;-53
2022/09/21 09:07:39;;;;;;;5.40;4.20;;;15.70;1.00;;;;;;4992104;28;20444;-56
2022/09/21 09:10:31;;;;;;;6.03;4.03;;;15.90;1.00;;;;;;4994113;28;20876;-56
2022/09/21 09:13:33;;;;;;;7.47;4.13;;;16.10;1.00;;;;;;4993927;28;20502;-54
2022/09/21 09:16:02;;;;;;;4.63;3.30;;;16.10;1.00;;;;;;4993649;28;20516;-56
2022/09/21 09:18:39;;;;;;;4.30;3.40;;;16.30;1.00;;;;;;4993864;28;20464;-54
2022/09/21 09:21:15;;;;;;;4.57;2.73;;;16.40;1.00;;;;;;4993745;28;20416;-55
2022/09/21 09:23:50;;;;;;;3.97;3.57;;;16.20;1.00;;;;;;4993640;28;20465;-55
2022/09/21 09:26:38;;;;;;;4.53;4.13;;;16.20;1.00;;;;;;4993431;28;20417;-54
2022/09/21 09:29:12;;;;;;;5.50;3.90;;;16.30;1.00;;;;;;4993204;28;20450;-56
2022/09/21 09:31:39;;;;;;;6.33;4.23;;;16.40;1.00;;;;;;4993489;28;20441;-54
2022/09/21 09:34:17;;;;;;;6.03;4.30;;;16.00;1.00;;;;;;4992820;28;20448;-54
2022/09/21 09:36:53;;;;;;;3.90;3.50;;;16.00;1.00;;;;;;4975690;28;20448;-52
2022/09/21 09:39:19;;;;;;;9.40;4.13;;;16.10;1.00;;;;;;4993706;28;20446;-56
2022/09/21 09:42:10;;;;;;;3.90;3.17;;;16.00;1.00;;;;;;4993256;28;21159;-55
2022/09/21 09:45:06;;;;;;;4.33;2.90;;;15.80;1.00;;;;;;4993366;28;20248;-56
2022/09/21 09:48:01;;;;;;;4.00;2.90;;;15.90;1.00;;;;;;4993446;28;20432;-55
2022/09/21 09:50:36;;;;;;;4.03;3.40;;;16.10;1.00;;;;;;4993195;28;20470;-55
2022/09/21 09:53:17;;;;;;;4.03;2.60;;;16.10;1.00;;;;;;4992863;28;20422;-56
2022/09/21 09:55:49;;;;;;;5.90;3.73;;;15.80;1.00;;;;;;4992825;28;20805;-54
2022/09/21 09:58:22;;;;;;;6.27;3.20;;;15.70;1.00;;;;;;4992683;28;20472;-55
2022/09/21 10:00:53;;;;;;;3.67;2.80;;;15.90;1.00;;;;;;4992167;28;20431;-55
2022/09/21 10:03:24;;;;;;;3.93;2.80;;;16.10;1.00;;;;;;4992623;28;20439;-55
2022/09/21 10:05:50;;;;;;;3.77;2.80;;;16.40;1.00;;;;;;4992642;28;20539;-57
2022/09/21 10:08:35;;;;;;;5.87;3.50;;;16.90;1.00;;;;;;4992525;28;20468;-56
2022/09/21 10:11:01;;;;;;;4.20;2.57;;;17.50;1.00;;;;;;4992860;28;20441;-56
2022/09/21 10:13:35;;;;;;;4.67;2.80;;;17.70;1.00;;;;;;4992737;28;20411;-56
2022/09/21 10:16:01;;;;;;;2.83;2.53;;;17.70;1.00;;;;;;4992544;28;20516;-55
2022/09/21 10:18:55;;;;;;;4.60;2.90;;;17.70;1.00;;;;;;4991658;28;20585;-55
2022/09/21 10:21:26;;;;;;;4.73;2.80;;;18.00;1.00;;;;;;4992415;28;20510;-53
2022/09/21 10:24:02;;;;;;;3.60;2.50;;;18.50;1.00;;;;;;4992374;28;20455;-55
2022/09/21 10:26:35;;;;;;;3.73;2.57;;;18.70;1.00;;;;;;5000686;28;20407;-55
2022/09/21 10:29:17;;;;;;;2.40;2.20;;;18.80;1.00;;;;;;4991855;28;20457;-55
2022/09/21 10:32:11;;;;;;;2.80;1.90;;;18.40;1.00;;;;;;4992729;28;20420;-56
2022/09/21 10:34:39;;;;;;;2.43;1.70;;;18.20;1.00;;;;;;4992313;28;20453;-56
2022/09/21 10:37:27;;;;;;;2.30;1.80;;;18.10;1.00;;;;;;4992003;28;20424;-56
2022/09/21 10:39:53;;;;;;;3.63;2.03;;;17.70;1.00;;;;;;4971680;28;20522;-54
2022/09/21 10:42:19;;;;;;;3.30;2.17;;;17.40;1.00;;;;;;4991863;28;20441;-56
2022/09/21 10:44:52;;;;;;;3.33;2.33;;;17.40;1.00;;;;;;4992401;28;20208;-56
2022/09/21 10:47:36;;;;;;;3.10;2.07;;;17.20;1.00;;;;;;4991831;28;20436;-54
2022/09/21 10:50:20;;;;;;;2.10;1.70;;;16.90;1.00;;;;;;4991746;28;20480;-55
2022/09/21 10:52:46;;;;;;;2.37;1.70;;;16.80;1.00;;;;;;5011235;28;20510;-54
2022/09/21 10:55:20;;;;;;;2.23;1.80;;;16.70;1.00;;;;;;5011474;28;20479;-56
2022/09/21 10:57:47;;;;;;;4.07;1.73;;;16.60;1.00;;;;;;5011200;28;20797;-55
2022/09/21 11:00:28;;;;;;;1.80;1.70;;;16.90;1.00;;;;;;5006621;28;20519;-54
2022/09/21 11:02:55;;;;;;;3.93;2.53;;;17.40;1.00;;;;;;4991980;28;20492;-57
2022/09/21 11:05:26;;;;;;;2.60;2.03;;;18.10;1.00;;;;;;4974492;28;20458;-56
2022/09/21 11:08:16;;;;;;;2.20;1.60;;;18.60;1.00;;;;;;4991506;28;20542;-56
2022/09/21 11:10:41;;;;;;;2.17;1.63;;;18.20;1.00;;;;;;4989599;28;20819;-53
2022/09/21 11:13:50;;;;;;;2.37;1.60;;;17.80;1.00;;;;;;4991459;28;20506;-55
2022/09/21 11:16:32;;;;;;;2.63;1.87;;;17.60;1.00;;;;;;4953938;28;20198;-55
2022/09/21 11:19:01;;;;;;;4.50;1.70;;;17.40;1.00;;;;;;4991361;28;20542;-54
2022/09/21 11:21:45;;;;;;;2.57;1.77;;;17.40;1.00;;;;;;4991444;28;20433;-55
2022/09/21 11:24:36;;;;;;;5.13;1.77;;;17.50;1.00;;;;;;4991631;28;20431;-55
2022/09/21 11:27:27;;;;;;;4.17;1.50;;;17.60;1.00;;;;;;4990900;28;20973;-56
2022/09/21 11:30:12;;;;;;;2.30;1.10;;;17.70;1.00;;;;;;4990920;28;20430;-56
2022/09/21 11:32:59;;;;;;;1.40;1.30;;;17.40;1.00;;;;;;4991196;28;20403;-54
2022/09/21 11:35:34;;;;;;;1.23;0.97;;;17.20;1.00;;;;;;4990928;28;20445;-56
2022/09/21 11:38:14;;;;;;;1.90;1.70;;;17.10;1.00;;;;;;4991203;28;20430;-54
2022/09/21 11:40:59;;;;;;;2.40;1.70;;;17.90;1.00;;;;;;4990790;28;20437;-54
2022/09/21 11:43:52;;;;;;;2.37;1.90;;;18.00;1.00;;;;;;4990851;28;20473;-56
2022/09/21 11:46:44;;;;;;;1.70;1.53;;;18.50;1.00;;;;;;4990725;28;20453;-54
2022/09/21 11:49:21;;;;;;;2.70;2.10;;;18.80;1.00;;;;;;4990632;28;20459;-54
2022/09/21 11:52:04;;;;;;;1.90;1.80;;;19.00;1.00;;;;;;4991151;28;20434;-55
2022/09/21 11:54:53;;;;;;;2.20;2.00;;;18.60;1.00;;;;;;4990414;28;20456;-54
2022/09/21 11:57:27;;;;;;;2.30;1.40;;;18.20;1.00;;;;;;4991020;28;20458;-52
2022/09/21 11:59:57;;;;;;;2.33;1.70;;;17.80;1.00;;;;;;4990533;28;20465;-55
2022/09/21 12:02:31;;;;;;;3.87;1.93;;;17.50;1.00;;;;;;4990751;28;20489;-54
2022/09/21 12:05:11;;;;;;;3.13;2.07;;;17.60;1.00;;;;;;4989902;28;20415;-55
2022/09/21 12:07:57;;;;;;;2.43;2.23;;;17.50;1.00;;;;;;4988719;28;20442;-55
2022/09/21 12:10:38;;;;;;;2.20;1.47;;;17.60;1.00;;;;;;4941477;28;20451;-55
2022/09/21 12:13:16;;;;;;;2.13;1.40;;;17.80;1.00;;;;;;4990586;28;20465;-56
2022/09/21 12:15:53;;;;;;;3.07;1.63;;;18.10;1.00;;;;;;5005956;28;20439;-55
2022/09/21 12:18:27;;;;;;;2.67;1.80;;;18.40;1.00;;;;;;5010306;28;20407;-55
2022/09/21 12:21:11;;;;;;;2.33;2.13;;;18.40;1.00;;;;;;5002283;28;21033;-55
2022/09/21 12:23:53;;;;;;;4.60;2.17;;;18.40;1.00;;;;;;5010214;28;20523;-56
2022/09/21 12:26:50;;;;;;;4.50;1.97;;;18.20;1.00;;;;;;4996881;28;20420;-52
2022/09/21 12:29:26;;;;;;;3.20;1.93;;;18.60;1.00;;;;;;4903706;28;20454;-57
2022/09/21 12:32:10;;;;;;;1.53;1.23;;;19.30;1.00;;;;;;4990740;28;20831;-56
2022/09/21 12:34:48;;;;;;;1.57;1.47;;;19.30;1.00;;;;;;4990604;28;20444;-57
2022/09/21 12:37:38;;;;;;;2.17;1.50;;;19.20;1.00;;;;;;4990613;28;20966;-57
2022/09/21 12:40:32;;;;;;;2.23;1.37;;;18.90;1.00;;;;;;4990266;28;20470;-56
2022/09/21 12:43:31;;;;;;;3.47;1.67;;;18.50;1.00;;;;;;4993898;28;20440;-55
2022/09/21 12:46:03;;;;;;;2.27;1.70;;;18.30;1.00;;;;;;4994361;28;20432;-56
2022/09/21 12:48:35;;;;;;;1.70;1.40;;;18.20;1.00;;;;;;4994320;28;20898;-54
2022/09/21 12:51:15;;;;;;;3.90;1.40;;;18.40;1.00;;;;;;4993027;28;20441;-57
2022/09/21 12:53:47;;;;;;;1.93;1.40;;;18.60;1.00;;;;;;4993359;28;21059;-55
2022/09/21 12:56:41;;;;;;;2.20;1.73;;;18.50;1.00;;;;;;4992838;28;20445;-55
2022/09/21 12:59:28;;;;;;;1.80;1.57;;;18.40;1.00;;;;;;4972644;28;20941;-54
2022/09/21 13:02:14;;;;;;;2.50;1.90;;;18.50;1.00;;;;;;4994108;28;20556;-56
2022/09/21 13:05:03;;;;;;;1.47;1.37;;;18.40;1.00;;;;;;4993985;28;20441;-56
2022/09/21 13:07:48;;;;;;;2.63;1.30;;;18.30;1.00;;;;;;4993067;28;20474;-56
2022/09/21 13:10:17;;;;;;;1.40;1.27;;;18.40;1.00;;;;;;4993591;28;20485;-55
2022/09/21 13:12:45;;;;;;;2.37;1.40;;;18.60;1.00;;;;;;4996088;28;20441;-55
2022/09/21 13:15:25;;;;;;;2.20;1.50;;;18.90;1.00;;;;;;4996475;28;20415;-57
2022/09/21 13:18:04;;;;;;;1.90;1.33;;;19.20;1.00;;;;;;4993828;28;20451;-56
2022/09/21 13:20:38;;;;;;;3.63;1.40;;;19.20;1.00;;;;;;4976027;28;20454;-56
2022/09/21 13:23:05;;;;;;;2.63;1.80;;;19.00;1.00;;;;;;4999787;28;20446;-54
2022/09/21 13:25:36;;;;;;;4.43;2.10;;;18.80;1.00;;;;;;5012222;28;20446;-56
2022/09/21 13:28:10;;;;;;;5.93;2.90;;;18.50;1.00;;;;;;4976358;28;20467;-54
2022/09/21 13:30:38;;;;;;;2.23;1.73;;;18.60;1.00;;;;;;5004532;28;20442;-52